METAR Formatted Surface Weather Observation
Issued by NWS

Home | Current Version | Previous Version | Text Only | Print | Product List | Glossary On
Versions: 1 2 3 4 5 6
122
SAUS41 KGYX 232255
MTRNKT
METAR KNKT 232254Z AUTO 04012KT 10SM OVC011 17/14 A2995 RMK AO2
SLP139 T01720139



USA.gov is the U.S. government's official web portal to all federal, state and local government web resources and services.